createdAt,value
2023-04-25T00:00:18.441Z,2.60
2023-04-25T00:02:45.585Z,2.25
2023-04-25T00:05:13.537Z,1.67
2023-04-25T00:07:43.022Z,3.22
2023-04-25T00:10:12.096Z,3.63
2023-04-25T00:12:40.104Z,1.13
2023-04-25T00:15:07.857Z,3.00
2023-04-25T00:17:36.000Z,1.92
2023-04-25T00:20:06.283Z,1.92
2023-04-25T00:22:35.733Z,2.28
2023-04-25T00:25:04.444Z,3.30
2023-04-25T00:27:31.457Z,3.30
2023-04-25T00:29:58.725Z,1.63
2023-04-25T00:32:26.416Z,1.98
2023-04-25T00:34:53.538Z,2.33
2023-04-25T00:37:21.145Z,2.35
2023-04-25T00:39:48.208Z,2.67
2023-04-25T00:42:15.476Z,2.45
2023-04-25T00:44:43.866Z,2.90
2023-04-25T00:47:12.456Z,3.47
2023-04-25T00:49:39.436Z,2.88
2023-04-25T00:52:06.897Z,1.50
2023-04-25T00:54:33.940Z,4.85
2023-04-25T00:57:02.071Z,2.28
2023-04-25T00:59:30.873Z,2.78
2023-04-25T01:01:59.060Z,4.55
2023-04-25T01:04:28.752Z,3.05
2023-04-25T01:06:56.966Z,4.20
2023-04-25T01:09:24.930Z,2.33
2023-04-25T01:11:52.538Z,1.85
2023-04-25T01:14:19.713Z,5.57
2023-04-25T01:16:47.736Z,6.28
2023-04-25T01:19:19.174Z,2.47
2023-04-25T01:21:47.582Z,5.05
2023-04-25T01:24:15.738Z,1.98
2023-04-25T01:26:50.631Z,5.05
2023-04-25T01:29:21.995Z,3.97
2023-04-25T01:31:49.584Z,1.77
2023-04-25T01:34:16.624Z,1.95
2023-04-25T01:36:44.227Z,2.30
2023-04-25T01:39:12.036Z,2.90
2023-04-25T01:41:39.527Z,1.42
2023-04-25T01:44:06.968Z,2.15
2023-04-25T01:46:35.419Z,4.63
2023-04-25T01:49:03.094Z,2.70
2023-04-25T01:51:31.474Z,6.25
2023-04-25T01:54:00.861Z,1.85
2023-04-25T01:56:38.064Z,2.47
2023-04-25T01:59:07.229Z,1.30
2023-04-25T02:01:51.871Z,3.97
2023-04-25T02:04:26.601Z,1.80
2023-04-25T02:06:53.865Z,2.58
2023-04-25T02:09:21.828Z,3.22
2023-04-25T02:11:54.621Z,1.80
2023-04-25T02:14:34.442Z,2.03
2023-04-25T02:17:24.252Z,1.90
2023-04-25T02:19:52.312Z,1.27
2023-04-25T02:22:19.916Z,1.92
2023-04-25T02:24:47.687Z,2.85
2023-04-25T02:27:15.166Z,2.38
2023-04-25T02:29:42.268Z,2.25
2023-04-25T02:32:11.856Z,1.98
2023-04-25T02:34:39.249Z,2.17
2023-04-25T02:37:06.631Z,1.85
2023-04-25T02:39:33.591Z,3.50
2023-04-25T02:42:02.013Z,3.30
2023-04-25T02:44:30.898Z,2.97
2023-04-25T02:46:57.975Z,5.57
2023-04-25T02:49:24.971Z,2.60
2023-04-25T02:51:53.470Z,2.60
2023-04-25T02:54:20.940Z,1.67
2023-04-25T02:56:49.401Z,3.65
2023-04-25T02:59:23.590Z,3.15
2023-04-25T03:01:50.793Z,2.90
2023-04-25T03:04:20.068Z,5.85
2023-04-25T03:06:48.432Z,1.75
2023-04-25T03:09:15.922Z,3.85
2023-04-25T03:11:43.277Z,1.92
2023-04-25T03:14:10.987Z,2.42
2023-04-25T03:16:38.497Z,4.30
2023-04-25T03:19:06.425Z,2.90
2023-04-25T03:21:35.123Z,3.03
2023-04-25T03:24:04.704Z,4.43
2023-04-25T03:26:32.532Z,2.10
2023-04-25T03:29:00.841Z,4.80
2023-04-25T03:31:28.797Z,3.40
2023-04-25T03:33:56.094Z,2.10
2023-04-25T03:36:24.691Z,3.08
2023-04-25T03:38:51.725Z,2.08
2023-04-25T03:41:21.193Z,3.65
2023-04-25T03:43:53.402Z,4.50
2023-04-25T03:46:21.041Z,2.78
2023-04-25T03:48:48.959Z,6.18
2023-04-25T03:51:22.055Z,2.75
2023-04-25T03:53:49.854Z,2.72
2023-04-25T03:56:21.152Z,4.75
2023-04-25T03:58:53.849Z,3.72
2023-04-25T04:01:24.139Z,2.85
2023-04-25T04:03:51.708Z,5.85
2023-04-25T04:06:21.721Z,5.20
2023-04-25T04:08:53.744Z,1.88
2023-04-25T04:11:21.585Z,3.33
2023-04-25T04:13:49.068Z,4.50
2023-04-25T04:16:16.398Z,4.55
2023-04-25T04:18:44.060Z,3.97
2023-04-25T04:21:11.131Z,2.28
2023-04-25T04:23:41.935Z,3.03
2023-04-25T04:26:11.166Z,2.55
2023-04-25T04:29:01.313Z,2.22
2023-04-25T04:31:53.711Z,4.30
2023-04-25T04:34:21.105Z,3.15
2023-04-25T04:36:48.605Z,3.20
2023-04-25T04:39:16.279Z,7.60
2023-04-25T04:41:55.163Z,2.08
2023-04-25T04:44:45.699Z,3.33
2023-04-25T04:47:26.963Z,4.18
2023-04-25T04:50:13.224Z,3.20
2023-04-25T04:53:03.043Z,4.18
2023-04-25T04:55:47.267Z,4.47
2023-04-25T04:58:32.257Z,8.30
2023-04-25T05:04:19.661Z,3.67
2023-04-25T05:06:58.962Z,5.78
2023-04-25T05:09:51.498Z,5.32
2023-04-25T05:12:41.361Z,6.70
2023-04-25T05:15:11.780Z,4.18
2023-04-25T05:17:54.198Z,4.25
2023-04-25T05:20:41.612Z,9.25
2023-04-25T05:23:09.022Z,4.32
2023-04-25T05:25:51.176Z,4.65
2023-04-25T05:28:31.665Z,3.70
2023-04-25T05:31:15.489Z,4.43
2023-04-25T05:33:51.643Z,4.53
2023-04-25T05:36:22.475Z,4.05
2023-04-25T05:38:49.620Z,5.45
2023-04-25T05:41:22.310Z,3.35
2023-04-25T05:43:57.935Z,4.50
2023-04-25T05:46:41.461Z,6.18
2023-04-25T05:49:28.786Z,6.78
2023-04-25T05:51:58.371Z,4.07
2023-04-25T05:54:31.158Z,3.03
2023-04-25T05:56:58.982Z,5.13
2023-04-25T05:59:26.865Z,5.03
2023-04-25T06:01:57.142Z,5.10
2023-04-25T06:04:24.879Z,4.80
2023-04-25T06:06:52.185Z,7.15
2023-04-25T06:09:19.242Z,4.45
2023-04-25T06:11:46.386Z,3.85
2023-04-25T06:14:13.382Z,6.35
2023-04-25T06:16:46.210Z,7.22
2023-04-25T06:19:13.245Z,7.40
2023-04-25T06:21:41.099Z,5.97
2023-04-25T06:24:09.067Z,5.25
2023-04-25T06:26:36.174Z,5.03
2023-04-25T06:29:04.226Z,4.70
2023-04-25T06:31:33.567Z,6.13
2023-04-25T06:34:01.575Z,7.40
2023-04-25T06:36:30.067Z,4.70
2023-04-25T06:39:03.165Z,5.07
2023-04-25T06:41:30.304Z,7.70
2023-04-25T06:44:02.114Z,7.05
2023-04-25T06:46:55.760Z,6.07
2023-04-25T06:49:23.593Z,4.82
2023-04-25T06:51:50.680Z,3.75
2023-04-25T06:54:18.649Z,3.35
2023-04-25T06:56:56.001Z,4.55
2023-04-25T06:59:23.365Z,3.70
2023-04-25T07:01:51.452Z,5.15
2023-04-25T07:04:22.585Z,6.13
2023-04-25T07:06:53.352Z,3.53
2023-04-25T07:09:26.776Z,5.50
2023-04-25T07:11:54.287Z,4.65
2023-04-25T07:14:21.572Z,4.28
2023-04-25T07:16:49.163Z,5.07
2023-04-25T07:19:16.551Z,5.55
2023-04-25T07:21:44.640Z,5.20
2023-04-25T07:24:12.821Z,4.85
2023-04-25T07:26:45.036Z,3.80
2023-04-25T07:29:40.938Z,4.65
2023-04-25T07:32:08.806Z,5.13
2023-04-25T07:34:38.331Z,3.90
2023-04-25T07:37:06.407Z,6.05
2023-04-25T07:39:42.784Z,2.42
2023-04-25T07:42:10.411Z,7.05
2023-04-25T07:44:41.232Z,6.65
2023-04-25T07:47:11.296Z,6.45
2023-04-25T07:49:38.674Z,5.18
2023-04-25T07:52:09.548Z,5.88
2023-04-25T07:54:38.967Z,5.13
2023-04-25T07:57:15.056Z,4.90
2023-04-25T07:59:42.695Z,5.10
2023-04-25T08:02:10.119Z,6.75
2023-04-25T08:04:38.021Z,8.77
2023-04-25T08:07:08.780Z,4.07
2023-04-25T08:09:42.789Z,3.85
2023-04-25T08:12:21.059Z,4.43
2023-04-25T08:14:53.086Z,3.90
2023-04-25T08:17:21.055Z,2.42
2023-04-25T08:19:48.403Z,5.10
2023-04-25T08:22:24.212Z,6.22
2023-04-25T08:24:55.938Z,3.85
2023-04-25T08:27:23.520Z,7.53
2023-04-25T08:29:52.056Z,5.80
2023-04-25T08:32:20.418Z,5.93
2023-04-25T08:37:29.124Z,6.35
2023-04-25T08:40:01.924Z,6.30
2023-04-25T08:42:50.527Z,5.03
2023-04-25T08:45:17.677Z,4.60
2023-04-25T08:47:46.716Z,6.93
2023-04-25T08:50:14.636Z,3.88
2023-04-25T08:52:50.509Z,4.95
2023-04-25T08:55:17.955Z,5.03
2023-04-25T08:57:45.814Z,4.57
2023-04-25T09:00:14.284Z,6.90
2023-04-25T09:02:45.115Z,7.50
2023-04-25T09:05:15.269Z,8.85
2023-04-25T09:07:43.685Z,4.03
2023-04-25T09:10:11.751Z,5.18
2023-04-25T09:12:39.875Z,4.20
2023-04-25T09:15:12.383Z,5.18
2023-04-25T09:17:59.116Z,5.32
2023-04-25T09:20:33.353Z,7.72
2023-04-25T09:23:04.485Z,5.93
2023-04-25T09:25:40.191Z,5.22
2023-04-25T09:28:09.834Z,5.63
2023-04-25T09:30:37.962Z,4.80
2023-04-25T09:33:11.900Z,8.02
2023-04-25T09:35:45.004Z,5.40
2023-04-25T09:38:23.269Z,6.35
2023-04-25T09:41:12.745Z,5.60
2023-04-25T09:43:47.937Z,12.20
2023-04-25T09:46:16.625Z,8.07
2023-04-25T09:48:51.436Z,5.68
2023-04-25T09:51:28.571Z,9.35
2023-04-25T09:53:59.105Z,5.53
2023-04-25T09:56:49.350Z,4.85
2023-04-25T09:59:16.853Z,8.63
2023-04-25T10:01:44.948Z,8.25
2023-04-25T10:04:27.981Z,7.78
2023-04-25T10:07:06.773Z,6.38
2023-04-25T10:09:36.155Z,11.63
2023-04-25T10:12:04.605Z,5.63
2023-04-25T10:14:33.185Z,7.53
2023-04-25T10:17:01.090Z,5.55
2023-04-25T10:19:29.921Z,6.60
2023-04-25T10:22:11.040Z,6.60
2023-04-25T10:24:39.706Z,7.65
2023-04-25T10:27:07.444Z,6.93
2023-04-25T10:29:34.977Z,6.90
2023-04-25T10:32:02.957Z,7.10
2023-04-25T10:34:49.545Z,3.47
2023-04-25T10:37:16.947Z,5.50
2023-04-25T10:39:44.778Z,4.00
2023-04-25T10:42:12.938Z,4.45
2023-04-25T10:44:40.970Z,3.55
2023-04-25T10:47:10.641Z,4.53
2023-04-25T10:49:44.338Z,5.40
2023-04-25T10:52:17.871Z,3.83
2023-04-25T10:55:05.144Z,3.55
2023-04-25T10:57:43.000Z,4.47
2023-04-25T11:00:18.076Z,5.90
2023-04-25T11:02:54.528Z,6.18
2023-04-25T11:05:31.428Z,4.78
2023-04-25T11:08:07.980Z,4.25
2023-04-25T11:10:39.073Z,4.75
2023-04-25T11:13:06.710Z,6.70
2023-04-25T11:15:33.764Z,5.60
2023-04-25T11:18:02.102Z,5.70
2023-04-25T11:20:30.016Z,7.07
2023-04-25T11:23:01.069Z,5.07
2023-04-25T11:25:28.847Z,8.45
2023-04-25T11:27:59.092Z,7.97
2023-04-25T11:30:27.960Z,5.03
2023-04-25T11:32:55.893Z,5.80
2023-04-25T11:35:24.358Z,7.47
2023-04-25T11:37:51.514Z,6.30
2023-04-25T11:40:19.002Z,6.15
2023-04-25T11:42:47.961Z,5.97
2023-04-25T11:45:16.130Z,5.20
2023-04-25T11:47:43.255Z,5.05
2023-04-25T11:50:11.152Z,5.93
2023-04-25T11:52:43.683Z,4.60
2023-04-25T11:55:21.464Z,5.00
2023-04-25T11:57:53.763Z,6.80
2023-04-25T12:00:23.614Z,6.70
2023-04-25T12:02:56.931Z,7.30
2023-04-25T12:05:35.301Z,3.72
2023-04-25T12:08:16.147Z,4.68
2023-04-25T12:10:46.342Z,8.95
2023-04-25T12:13:25.050Z,5.40
2023-04-25T12:15:53.084Z,10.70
2023-04-25T12:18:22.237Z,4.85
2023-04-25T12:20:49.647Z,5.25
2023-04-25T12:23:16.834Z,6.78
2023-04-25T12:25:46.157Z,6.95
2023-04-25T12:28:15.460Z,5.00
2023-04-25T12:31:06.748Z,5.35
2023-04-25T12:33:38.458Z,7.07
2023-04-25T12:36:10.203Z,8.70
2023-04-25T12:38:42.722Z,5.50
2023-04-25T12:41:10.421Z,5.93
2023-04-25T12:43:37.876Z,5.70
2023-04-25T12:46:05.404Z,4.68
2023-04-25T12:48:32.544Z,5.88
2023-04-25T12:50:59.849Z,4.22
2023-04-25T12:53:27.356Z,5.55
2023-04-25T12:58:22.363Z,5.72
2023-04-25T13:00:57.047Z,6.20
2023-04-25T13:07:52.873Z,4.07
2023-04-25T13:10:20.443Z,6.57
2023-04-25T13:12:47.955Z,7.85
2023-04-25T13:15:16.624Z,5.68
2023-04-25T13:17:44.399Z,6.30
2023-04-25T13:20:11.780Z,5.72
2023-04-25T13:22:40.356Z,4.45
2023-04-25T13:25:09.179Z,10.30
2023-04-25T13:27:37.908Z,5.93
2023-04-25T13:30:08.269Z,8.15
2023-04-25T13:32:39.463Z,8.15
2023-04-25T13:35:11.126Z,7.70
2023-04-25T13:37:39.600Z,9.25
2023-04-25T13:40:11.165Z,8.05
2023-04-25T13:42:39.547Z,8.68
2023-04-25T13:45:08.033Z,7.20
2023-04-25T13:47:36.347Z,8.60
2023-04-25T13:50:04.921Z,6.30
2023-04-25T13:52:32.212Z,14.52
2023-04-25T13:54:59.985Z,5.40
2023-04-25T13:57:26.981Z,5.97
2023-04-25T13:59:55.021Z,7.70
2023-04-25T14:02:22.452Z,9.45
2023-04-25T14:04:49.862Z,8.77
2023-04-25T14:07:17.312Z,6.93
2023-04-25T14:09:44.888Z,8.88
2023-04-25T14:12:12.261Z,11.82
2023-04-25T14:14:39.866Z,12.30
2023-04-25T14:17:07.850Z,8.93
2023-04-25T14:19:35.480Z,8.18
2023-04-25T14:22:02.529Z,7.07
2023-04-25T14:24:29.950Z,11.20
2023-04-25T14:26:57.643Z,10.70
2023-04-25T14:29:24.693Z,13.43
2023-04-25T14:31:51.770Z,10.05
2023-04-25T14:34:19.283Z,8.23
2023-04-25T14:36:46.681Z,10.50
2023-04-25T14:39:15.756Z,8.48
2023-04-25T14:41:42.738Z,8.23
2023-04-25T14:44:10.119Z,14.85
2023-04-25T14:46:38.546Z,10.52
2023-04-25T14:49:06.417Z,9.63
2023-04-25T14:51:34.300Z,9.48
2023-04-25T14:54:02.079Z,11.07
2023-04-25T14:56:29.441Z,9.50
2023-04-25T14:58:57.601Z,9.13
2023-04-25T15:01:25.154Z,7.72
2023-04-25T15:03:53.010Z,7.13
2023-04-25T15:06:20.842Z,4.47
2023-04-25T15:08:48.260Z,7.75
2023-04-25T15:11:15.750Z,13.25
2023-04-25T15:13:43.191Z,8.32
2023-04-25T15:16:11.293Z,11.20
2023-04-25T15:18:38.690Z,6.70
2023-04-25T15:21:06.574Z,9.27
2023-04-25T15:23:33.950Z,9.57
2023-04-25T15:26:01.366Z,7.25
2023-04-25T15:28:28.730Z,6.90
2023-04-25T15:30:56.620Z,8.38
2023-04-25T15:33:24.163Z,6.65
2023-04-25T15:35:51.763Z,8.90
2023-04-25T15:38:21.296Z,6.60
2023-04-25T15:40:48.759Z,11.40
2023-04-25T15:43:17.284Z,15.43
2023-04-25T15:45:45.756Z,7.03
2023-04-25T15:48:17.453Z,9.77
2023-04-25T15:50:45.001Z,9.02
2023-04-25T15:53:12.406Z,11.93
2023-04-25T15:55:46.589Z,8.80
2023-04-25T15:58:14.034Z,8.00
2023-04-25T16:00:41.626Z,11.77
2023-04-25T16:03:09.277Z,7.13
2023-04-25T16:05:37.556Z,9.73
2023-04-25T16:08:05.408Z,5.32
2023-04-25T16:10:33.279Z,5.68
2023-04-25T16:13:00.953Z,6.32
2023-04-25T16:15:28.340Z,7.47
2023-04-25T16:17:55.935Z,10.32
2023-04-25T16:20:23.402Z,14.70
2023-04-25T16:22:51.163Z,10.23
2023-04-25T16:25:18.697Z,7.57
2023-04-25T16:27:46.252Z,12.02
2023-04-25T16:30:14.285Z,6.82
2023-04-25T16:32:44.729Z,6.95
2023-04-25T16:35:12.706Z,9.23
2023-04-25T16:37:40.387Z,7.63
2023-04-25T16:40:11.073Z,9.23
2023-04-25T16:42:38.579Z,9.98
2023-04-25T16:45:06.468Z,5.95
2023-04-25T16:47:33.646Z,6.88
2023-04-25T16:50:01.715Z,10.20
2023-04-25T16:52:29.175Z,11.13
2023-04-25T16:54:56.457Z,9.70
2023-04-25T16:57:23.889Z,4.40
2023-04-25T16:59:52.071Z,11.25
2023-04-25T17:02:19.569Z,6.85
2023-04-25T17:04:47.642Z,5.30
2023-04-25T17:07:15.988Z,16.08
2023-04-25T17:09:43.484Z,5.60
2023-04-25T17:12:10.898Z,7.85
2023-04-25T17:14:39.078Z,6.47
2023-04-25T17:17:07.082Z,9.00
2023-04-25T17:19:34.589Z,6.45
2023-04-25T17:22:02.084Z,14.55
2023-04-25T17:24:29.515Z,9.15
2023-04-25T17:26:57.339Z,9.05
2023-04-25T17:29:24.882Z,9.52
2023-04-25T17:31:53.664Z,9.88
2023-04-25T17:34:21.545Z,9.68
2023-04-25T17:36:48.668Z,9.88
2023-04-25T17:39:17.383Z,6.90
2023-04-25T17:41:45.662Z,8.88
2023-04-25T17:44:13.471Z,14.75
2023-04-25T17:46:41.596Z,6.70
2023-04-25T17:49:09.152Z,9.13
2023-04-25T17:51:37.066Z,8.68
2023-04-25T17:54:04.507Z,9.40
2023-04-25T17:56:31.932Z,12.35
2023-04-25T17:58:59.553Z,11.27
2023-04-25T18:01:27.090Z,11.10
2023-04-25T18:03:57.917Z,8.98
2023-04-25T18:06:28.285Z,7.72
2023-04-25T18:08:57.174Z,6.30
2023-04-25T18:11:24.781Z,8.77
2023-04-25T18:13:52.768Z,9.70
2023-04-25T18:16:20.021Z,13.05
2023-04-25T18:18:53.392Z,8.65
2023-04-25T18:21:21.612Z,8.00
2023-04-25T18:23:49.046Z,11.20
2023-04-25T18:26:16.482Z,7.93
2023-04-25T18:28:43.971Z,6.13
2023-04-25T18:31:11.943Z,4.43
2023-04-25T18:33:39.071Z,11.35
2023-04-25T18:36:07.096Z,7.78
2023-04-25T18:38:35.960Z,8.75
2023-04-25T18:41:27.147Z,10.35
2023-04-25T18:44:01.137Z,10.93
2023-04-25T18:46:29.471Z,8.98
2023-04-25T18:48:57.524Z,7.43
2023-04-25T18:51:31.982Z,6.20
2023-04-25T18:53:59.593Z,9.88
2023-04-25T18:56:28.085Z,9.27
2023-04-25T18:58:56.456Z,7.13
2023-04-25T19:01:25.485Z,12.60
2023-04-25T19:03:57.200Z,9.25
2023-04-25T19:08:56.450Z,8.68
2023-04-25T19:11:24.468Z,10.45
2023-04-25T19:13:52.452Z,8.82
2023-04-25T19:16:20.128Z,5.90
2023-04-25T19:19:27.524Z,7.72
2023-04-25T19:22:08.687Z,9.05
2023-04-25T19:29:37.024Z,5.80
2023-04-25T19:32:20.361Z,6.28
2023-04-25T19:35:17.303Z,11.30
2023-04-25T19:37:48.036Z,8.73
2023-04-25T19:40:16.462Z,9.60
2023-04-25T19:42:44.507Z,9.35
2023-04-25T19:45:12.594Z,7.85
2023-04-25T19:47:40.583Z,7.35
2023-04-25T19:50:09.427Z,7.20
2023-04-25T19:52:37.535Z,10.52
2023-04-25T19:55:06.299Z,7.28
2023-04-25T19:57:38.029Z,18.75
2023-04-25T20:00:14.411Z,5.85
2023-04-25T20:02:50.798Z,10.30
2023-04-25T20:05:18.644Z,10.52
2023-04-25T20:07:46.114Z,8.73
2023-04-25T20:10:15.617Z,7.85
2023-04-25T20:12:44.153Z,8.85
2023-04-25T20:15:14.415Z,6.70
2023-04-25T20:17:42.707Z,11.45
2023-04-25T20:20:11.973Z,7.55
2023-04-25T20:22:40.558Z,7.82
2023-04-25T20:25:09.953Z,9.63
2023-04-25T20:27:38.233Z,11.40
2023-04-25T20:30:09.736Z,8.43
2023-04-25T20:32:37.341Z,9.00
2023-04-25T20:35:07.797Z,11.82
2023-04-25T20:37:35.963Z,12.43
2023-04-25T20:40:09.875Z,7.13
2023-04-25T20:42:38.166Z,6.32
2023-04-25T20:45:13.102Z,13.35
2023-04-25T20:47:41.428Z,10.52
2023-04-25T20:50:14.967Z,9.65
2023-04-25T20:52:43.222Z,7.75
2023-04-25T20:55:11.850Z,8.82
2023-04-25T20:57:38.964Z,8.68
2023-04-25T21:00:16.802Z,14.57
2023-04-25T21:02:46.003Z,16.20
2023-04-25T21:05:13.958Z,9.43
2023-04-25T21:07:41.756Z,22.08
2023-04-25T21:10:09.592Z,7.18
2023-04-25T21:12:37.058Z,12.75
2023-04-25T21:15:05.075Z,11.32
2023-04-25T21:17:32.690Z,13.35
2023-04-25T21:20:00.329Z,12.70
2023-04-25T21:22:27.730Z,10.80
2023-04-25T21:24:57.199Z,8.98
2023-04-25T21:27:24.684Z,8.30
2023-04-25T21:29:52.125Z,11.32
2023-04-25T21:32:21.924Z,7.68
2023-04-25T21:34:49.418Z,13.70
2023-04-25T21:37:16.849Z,9.80
2023-04-25T21:39:44.652Z,14.15
2023-04-25T21:42:12.070Z,7.90
2023-04-25T21:44:40.102Z,13.23
2023-04-25T21:47:07.598Z,8.38
2023-04-25T21:49:35.089Z,7.68
2023-04-25T21:52:05.035Z,14.73
2023-04-25T21:54:32.489Z,11.13
2023-04-25T21:56:59.983Z,8.73
2023-04-25T21:59:27.537Z,11.15
2023-04-25T22:01:55.228Z,11.00
2023-04-25T22:04:23.079Z,13.63
2023-04-25T22:06:50.746Z,11.35
2023-04-25T22:09:18.266Z,11.57
2023-04-25T22:11:46.965Z,11.00
2023-04-25T22:14:15.172Z,9.90
2023-04-25T22:16:43.506Z,12.85
2023-04-25T22:19:11.538Z,11.57
2023-04-25T22:21:39.040Z,14.25
2023-04-25T22:24:06.706Z,15.18
2023-04-25T22:26:34.756Z,13.73
2023-04-25T22:29:02.783Z,11.90
2023-04-25T22:31:30.438Z,16.50
2023-04-25T22:33:58.054Z,8.90
2023-04-25T22:36:25.760Z,10.05
2023-04-25T22:38:53.949Z,10.90
2023-04-25T22:41:23.638Z,13.55
2023-04-25T22:43:51.116Z,12.60
2023-04-25T22:46:19.917Z,10.98
2023-04-25T22:48:48.255Z,9.68
2023-04-25T22:51:15.833Z,12.68
2023-04-25T22:53:45.284Z,14.75
2023-04-25T22:56:13.231Z,12.80
2023-04-25T22:58:40.269Z,12.30
2023-04-25T23:01:08.706Z,10.40
2023-04-25T23:03:36.412Z,12.05
2023-04-25T23:06:04.151Z,13.25
2023-04-25T23:08:31.659Z,12.82
2023-04-25T23:10:59.462Z,12.95
2023-04-25T23:13:26.959Z,19.35
2023-04-25T23:15:54.375Z,17.45
2023-04-25T23:18:22.186Z,12.73
2023-04-25T23:20:49.589Z,11.00
2023-04-25T23:23:17.115Z,10.45
2023-04-25T23:25:46.014Z,15.52
2023-04-25T23:28:13.454Z,8.07
2023-04-25T23:30:41.323Z,15.60
2023-04-25T23:33:08.966Z,12.57
2023-04-25T23:35:37.211Z,8.63
2023-04-25T23:38:04.955Z,10.75
2023-04-25T23:40:32.737Z,11.55
2023-04-25T23:43:02.283Z,11.30
2023-04-25T23:45:30.417Z,11.32
2023-04-25T23:48:03.995Z,12.60
2023-04-25T23:50:31.953Z,11.43
2023-04-25T23:52:59.359Z,9.32
2023-04-25T23:55:27.227Z,9.45
2023-04-25T23:57:55.109Z,8.90
